createdAt,value
2023-02-11T00:02:05.396Z,35.00
2023-02-11T00:05:09.467Z,34.00
2023-02-11T00:08:17.512Z,33.00
2023-02-11T00:11:22.598Z,32.00
2023-02-11T00:14:26.026Z,33.25
2023-02-11T00:17:30.713Z,31.20
2023-02-11T00:20:34.005Z,32.00
2023-02-11T00:23:37.352Z,31.00
2023-02-11T00:26:40.604Z,31.00
2023-02-11T00:29:43.956Z,31.00
2023-02-11T00:32:48.701Z,32.00
2023-02-11T00:35:52.539Z,34.00
2023-02-11T00:38:57.605Z,32.00
2023-02-11T00:42:01.020Z,32.00
2023-02-11T00:45:04.812Z,32.00
2023-02-11T00:48:09.591Z,30.60
2023-02-11T00:51:13.256Z,31.00
2023-02-11T00:54:16.521Z,30.00
2023-02-11T00:57:19.784Z,30.00
2023-02-11T01:00:23.337Z,31.00
2023-02-11T01:03:28.141Z,29.25
2023-02-11T01:06:32.087Z,29.40
2023-02-11T01:09:35.566Z,27.80
2023-02-11T01:12:39.131Z,29.40
2023-02-11T01:15:42.440Z,30.00
2023-02-11T01:18:47.331Z,30.20
2023-02-11T01:21:51.106Z,29.00
2023-02-11T01:24:58.412Z,30.00
2023-02-11T01:28:01.751Z,29.00
2023-02-11T01:31:07.482Z,26.60
2023-02-11T01:34:12.231Z,28.50
2023-02-11T01:37:15.742Z,28.00
2023-02-11T01:40:19.968Z,28.25
2023-02-11T01:43:24.030Z,30.00
2023-02-11T01:46:32.629Z,28.00
2023-02-11T01:49:40.774Z,28.00
2023-02-11T01:52:46.386Z,27.00
2023-02-11T01:56:10.911Z,28.00
2023-02-11T01:59:19.826Z,29.50
2023-02-11T02:02:28.089Z,28.00
2023-02-11T02:05:38.376Z,28.00
2023-02-11T02:08:48.255Z,26.40
2023-02-11T02:11:52.542Z,26.00
2023-02-11T02:15:19.842Z,28.00
2023-02-11T02:18:35.510Z,27.00
2023-02-11T02:22:32.636Z,28.00
2023-02-11T02:26:01.212Z,29.00
2023-02-11T02:29:28.387Z,27.00
2023-02-11T02:32:42.021Z,27.00
2023-02-11T02:35:54.524Z,28.00
2023-02-11T02:39:02.282Z,27.00
2023-02-11T02:42:06.886Z,25.00
2023-02-11T02:45:12.260Z,24.80
2023-02-11T02:48:30.468Z,25.80
2023-02-11T02:52:08.216Z,26.20
2023-02-11T02:55:27.281Z,27.00
2023-02-11T02:58:54.413Z,27.00
2023-02-11T03:02:07.672Z,26.40
2023-02-11T03:05:19.542Z,27.00
2023-02-11T03:08:28.540Z,28.00
2023-02-11T03:11:31.971Z,24.60
2023-02-11T03:14:37.738Z,26.60
2023-02-11T03:17:44.024Z,27.40
2023-02-11T03:20:52.034Z,26.60
2023-02-11T03:23:57.807Z,27.75
2023-02-11T03:27:08.056Z,26.00
2023-02-11T03:30:16.539Z,23.00
2023-02-11T03:33:26.578Z,26.00
2023-02-11T03:36:41.116Z,24.00
2023-02-11T03:39:50.037Z,24.40
2023-02-11T03:42:58.452Z,24.20
2023-02-11T03:46:04.193Z,26.80
2023-02-11T03:49:13.427Z,26.00
2023-02-11T03:52:21.613Z,22.00
2023-02-11T03:55:27.300Z,25.50
2023-02-11T03:58:31.407Z,24.00
2023-02-11T04:01:34.745Z,24.00
2023-02-11T04:04:38.068Z,24.40
2023-02-11T04:07:42.860Z,24.00
2023-02-11T04:10:46.121Z,24.00
2023-02-11T04:13:49.453Z,23.00
2023-02-11T04:16:52.717Z,24.00
2023-02-11T04:19:55.945Z,24.00
2023-02-11T04:23:00.614Z,24.00
2023-02-11T04:26:03.959Z,25.20
2023-02-11T04:29:08.020Z,24.00
2023-02-11T04:32:12.461Z,26.60
2023-02-11T04:35:15.872Z,24.00
2023-02-11T04:38:20.512Z,26.00
2023-02-11T04:41:23.775Z,24.00
2023-02-11T04:44:27.247Z,26.40
2023-02-11T04:47:30.660Z,23.40
2023-02-11T04:50:33.997Z,24.20
2023-02-11T04:53:38.690Z,24.00
2023-02-11T04:56:41.930Z,24.00
2023-02-11T04:59:46.034Z,23.00
2023-02-11T05:02:49.307Z,23.00
2023-02-11T05:05:52.883Z,24.00
2023-02-11T05:08:57.872Z,25.00
2023-02-11T05:12:01.173Z,24.20
2023-02-11T05:15:04.656Z,27.00
2023-02-11T05:18:07.925Z,25.00
2023-02-11T05:21:13.644Z,25.33
2023-02-11T05:24:18.311Z,25.40
2023-02-11T05:27:21.620Z,25.00
2023-02-11T05:30:25.201Z,25.00
2023-02-11T05:33:28.903Z,25.60
2023-02-11T05:36:33.564Z,24.00
2023-02-11T05:39:38.269Z,25.25
2023-02-11T05:42:41.623Z,27.00
2023-02-11T05:45:44.854Z,26.00
2023-02-11T05:48:48.232Z,24.80
2023-02-11T05:51:51.607Z,26.00
2023-02-11T05:54:56.303Z,23.00
2023-02-11T05:57:59.608Z,24.00
2023-02-11T06:01:03.048Z,28.00
2023-02-11T06:04:06.477Z,26.00
2023-02-11T06:07:09.809Z,25.00
2023-02-11T06:10:14.466Z,29.00
2023-02-11T06:13:18.753Z,28.00
2023-02-11T06:16:22.035Z,24.00
2023-02-11T06:19:25.340Z,27.80
2023-02-11T06:22:28.749Z,28.00
2023-02-11T06:25:34.135Z,26.00
2023-02-11T06:28:40.000Z,23.50
2023-02-11T06:31:45.049Z,27.00
2023-02-11T06:34:48.526Z,25.00
2023-02-11T06:37:53.945Z,27.25
2023-02-11T06:40:58.608Z,24.00
2023-02-11T06:44:01.986Z,23.00
2023-02-11T06:47:05.293Z,24.00
2023-02-11T06:50:13.787Z,24.00
2023-02-11T06:53:16.994Z,25.40
2023-02-11T06:56:24.890Z,24.00
2023-02-11T06:59:28.788Z,24.00
2023-02-11T07:02:32.812Z,25.50
2023-02-11T07:05:37.241Z,25.00
2023-02-11T07:08:42.579Z,24.00
2023-02-11T07:11:47.217Z,22.00
2023-02-11T07:14:50.459Z,22.75
2023-02-11T07:17:53.742Z,22.00
2023-02-11T07:20:56.985Z,22.00
2023-02-11T07:24:00.334Z,23.00
2023-02-11T07:27:05.596Z,23.00
2023-02-11T07:30:09.989Z,22.50
2023-02-11T07:33:13.459Z,22.80
2023-02-11T07:36:17.971Z,23.00
2023-02-11T07:39:21.967Z,23.40
2023-02-11T07:42:26.610Z,27.00
2023-02-11T07:45:29.969Z,24.00
2023-02-11T07:48:33.361Z,25.00
2023-02-11T07:51:36.646Z,26.00
2023-02-11T07:54:39.930Z,27.00
2023-02-11T07:57:44.496Z,27.00
2023-02-11T08:00:47.764Z,26.60
2023-02-11T08:03:51.146Z,28.00
2023-02-11T08:06:58.953Z,28.00
2023-02-11T08:10:02.492Z,27.75
2023-02-11T08:13:07.108Z,28.00
2023-02-11T08:16:11.523Z,27.00
2023-02-11T08:19:16.620Z,25.60
2023-02-11T08:22:19.867Z,27.00
2023-02-11T08:25:23.179Z,25.60
2023-02-11T08:28:27.938Z,26.00
2023-02-11T08:31:34.503Z,25.80
2023-02-11T08:34:38.149Z,26.00
2023-02-11T08:37:41.709Z,27.00
2023-02-11T08:40:45.000Z,27.00
2023-02-11T08:43:49.856Z,27.00
2023-02-11T08:46:53.977Z,27.00
2023-02-11T08:49:57.312Z,26.00
2023-02-11T08:53:00.574Z,24.00
2023-02-11T08:56:03.913Z,23.60
2023-02-11T08:59:10.618Z,23.60
2023-02-11T09:02:15.473Z,24.00
2023-02-11T09:05:18.972Z,24.00
2023-02-11T09:08:22.436Z,23.00
2023-02-11T09:11:29.416Z,22.00
2023-02-11T09:14:34.087Z,23.00
2023-02-11T09:17:37.370Z,21.20
2023-02-11T09:20:40.612Z,22.00
2023-02-11T09:23:44.964Z,21.40
2023-02-11T09:26:49.644Z,22.00
2023-02-11T09:29:54.336Z,20.00
2023-02-11T09:32:57.615Z,22.00
2023-02-11T09:36:02.503Z,22.00
2023-02-11T09:39:08.287Z,23.00
2023-02-11T09:42:38.133Z,22.00
2023-02-11T09:45:43.064Z,24.00
2023-02-11T09:48:49.668Z,22.40
2023-02-11T09:52:00.107Z,23.00
2023-02-11T09:55:07.000Z,21.20
2023-02-11T09:58:14.905Z,19.00
2023-02-11T10:01:32.029Z,21.50
2023-02-11T10:04:58.613Z,22.00
2023-02-11T10:08:13.646Z,22.00
2023-02-11T10:11:32.121Z,22.00
2023-02-11T10:14:56.487Z,22.00
2023-02-11T10:18:35.751Z,20.00
2023-02-11T10:21:47.919Z,22.00
2023-02-11T10:24:58.477Z,22.60
2023-02-11T10:28:11.352Z,23.00
2023-02-11T10:31:18.236Z,20.00
2023-02-11T10:34:23.968Z,20.80
2023-02-11T10:37:27.458Z,24.25
2023-02-11T10:40:32.736Z,22.80
2023-02-11T10:43:36.274Z,20.60
2023-02-11T10:46:40.324Z,22.00
2023-02-11T10:49:46.665Z,20.80
2023-02-11T10:52:49.983Z,23.00
2023-02-11T10:55:55.836Z,23.40
2023-02-11T10:59:02.394Z,22.00
2023-02-11T11:02:17.987Z,24.00
2023-02-11T11:05:29.930Z,22.60
2023-02-11T11:08:43.092Z,23.00
2023-02-11T11:11:54.266Z,21.00
2023-02-11T11:14:59.694Z,23.00
2023-02-11T11:18:22.558Z,22.00
2023-02-11T11:21:34.661Z,23.00
2023-02-11T11:24:46.708Z,20.25
2023-02-11T11:27:52.230Z,22.60
2023-02-11T11:30:58.824Z,22.60
2023-02-11T11:34:14.802Z,23.00
2023-02-11T11:37:27.498Z,23.00
2023-02-11T11:40:32.788Z,22.00
2023-02-11T11:43:37.726Z,22.60
2023-02-11T11:46:45.434Z,22.00
2023-02-11T11:49:57.195Z,23.00
2023-02-11T11:53:07.115Z,22.75
2023-02-11T11:56:14.389Z,22.40
2023-02-11T11:59:17.746Z,22.00
2023-02-11T12:02:48.436Z,23.50
2023-02-11T12:06:08.266Z,22.00
2023-02-11T12:09:26.873Z,21.00
2023-02-11T12:12:41.478Z,22.40
2023-02-11T12:15:54.905Z,22.00
2023-02-11T12:19:28.344Z,22.25
2023-02-11T12:22:43.026Z,23.00
2023-02-11T12:25:56.534Z,23.80
2023-02-11T12:29:11.108Z,22.00
2023-02-11T12:32:26.854Z,23.00
2023-02-11T12:35:42.403Z,24.00
2023-02-11T12:39:05.304Z,23.00
2023-02-11T12:42:42.661Z,24.00
2023-02-11T12:46:00.393Z,24.00
2023-02-11T12:49:22.748Z,24.00
2023-02-11T12:52:45.744Z,24.20
2023-02-11T12:55:52.850Z,25.00
2023-02-11T12:59:00.335Z,27.00
2023-02-11T13:02:12.673Z,27.00
2023-02-11T13:05:24.943Z,25.20
2023-02-11T13:08:32.567Z,23.75
2023-02-11T13:11:41.058Z,26.00
2023-02-11T13:14:45.704Z,23.60
2023-02-11T13:18:01.131Z,25.60
2023-02-11T13:21:23.373Z,23.00
2023-02-11T13:24:35.882Z,24.00
2023-02-11T13:27:46.844Z,26.00
2023-02-11T13:31:02.148Z,26.00
2023-02-11T13:34:24.913Z,24.00
2023-02-11T13:37:35.696Z,26.00
2023-02-11T13:40:40.796Z,23.40
2023-02-11T13:43:59.500Z,25.00
2023-02-11T13:47:19.790Z,24.00
2023-02-11T13:50:26.613Z,24.00
2023-02-11T13:53:30.823Z,24.00
2023-02-11T13:56:40.962Z,24.00
2023-02-11T13:59:48.725Z,26.60
2023-02-11T14:03:40.098Z,27.00
2023-02-11T14:07:35.891Z,26.00
2023-02-11T14:10:53.362Z,27.00
2023-02-11T14:14:15.348Z,25.80
2023-02-11T14:17:20.924Z,27.00
2023-02-11T14:20:45.756Z,27.00
2023-02-11T14:23:48.986Z,26.00
2023-02-11T14:26:59.199Z,27.00
2023-02-11T14:30:21.412Z,26.20
2023-02-11T14:33:53.630Z,27.00
2023-02-11T14:37:10.909Z,27.33
2023-02-11T14:40:25.697Z,26.00
2023-02-11T14:43:35.384Z,26.00
2023-02-11T14:46:38.883Z,27.00
2023-02-11T14:49:42.521Z,24.80
2023-02-11T14:52:48.436Z,26.00
2023-02-11T14:55:54.046Z,26.80
2023-02-11T14:58:57.467Z,25.25
2023-02-11T15:02:00.721Z,26.00
2023-02-11T15:05:26.318Z,26.25
2023-02-11T15:08:31.853Z,26.00
2023-02-11T15:11:39.993Z,25.40
2023-02-11T15:14:49.063Z,25.00
2023-02-11T15:17:52.604Z,25.00
2023-02-11T15:20:56.165Z,26.00
2023-02-11T15:24:03.092Z,23.00
2023-02-11T15:27:15.684Z,24.00
2023-02-11T15:30:26.743Z,24.00
2023-02-11T15:33:32.212Z,25.00
2023-02-11T15:36:36.546Z,26.20
2023-02-11T15:39:42.775Z,27.00
2023-02-11T15:42:58.141Z,26.00
2023-02-11T15:46:03.221Z,24.00
2023-02-11T15:49:08.693Z,24.00
2023-02-11T15:52:14.206Z,26.00
2023-02-11T15:55:20.278Z,26.00
2023-02-11T15:58:24.916Z,27.00
2023-02-11T16:01:34.283Z,26.60
2023-02-11T16:04:38.320Z,26.80
2023-02-11T16:07:44.987Z,26.00
2023-02-11T16:10:58.737Z,26.00
2023-02-11T16:14:06.614Z,28.00
2023-02-11T16:17:13.618Z,27.00
2023-02-11T16:20:20.093Z,28.00
2023-02-11T16:23:26.719Z,27.25
2023-02-11T16:26:35.862Z,29.00
2023-02-11T16:29:39.395Z,28.40
2023-02-11T16:32:42.726Z,28.00
2023-02-11T16:35:47.822Z,27.00
2023-02-11T16:38:51.160Z,28.00
2023-02-11T16:41:56.272Z,27.60
2023-02-11T16:45:00.455Z,27.00
2023-02-11T16:48:04.048Z,28.00
2023-02-11T16:51:09.355Z,26.80
2023-02-11T16:54:16.197Z,25.00
2023-02-11T16:57:22.952Z,28.00
2023-02-11T17:00:26.433Z,26.00
2023-02-11T17:03:30.367Z,27.60
2023-02-11T17:06:35.016Z,26.00
2023-02-11T17:09:38.306Z,27.00
2023-02-11T17:12:42.909Z,28.00
2023-02-11T17:15:46.180Z,26.40
2023-02-11T17:18:49.955Z,27.20
2023-02-11T17:21:54.056Z,28.20
2023-02-11T17:24:57.330Z,28.00
2023-02-11T17:28:02.123Z,27.00
2023-02-11T17:31:08.900Z,28.00
2023-02-11T17:34:13.084Z,28.00
2023-02-11T17:37:16.490Z,28.00
2023-02-11T17:40:20.096Z,31.00
2023-02-11T17:43:24.846Z,27.00
2023-02-11T17:46:28.737Z,28.00
2023-02-11T17:49:32.271Z,29.00
2023-02-11T17:52:36.759Z,28.00
2023-02-11T17:55:40.142Z,27.00
2023-02-11T17:58:44.867Z,27.20
2023-02-11T18:01:48.910Z,27.60
2023-02-11T18:04:52.477Z,28.00
2023-02-11T18:07:56.062Z,28.25
2023-02-11T18:10:59.628Z,27.00
2023-02-11T18:14:07.860Z,28.00
2023-02-11T18:17:11.134Z,28.00
2023-02-11T18:20:15.069Z,27.20
2023-02-11T18:23:18.380Z,28.00
2023-02-11T18:26:25.802Z,27.40
2023-02-11T18:29:30.580Z,28.00
2023-02-11T18:32:33.963Z,28.00
2023-02-11T18:35:38.964Z,25.75
2023-02-11T18:38:44.288Z,26.00
2023-02-11T18:41:47.637Z,26.00
2023-02-11T18:44:52.352Z,24.00
2023-02-11T18:47:56.068Z,26.50
2023-02-11T18:50:59.630Z,24.00
2023-02-11T18:54:02.948Z,26.80
2023-02-11T18:57:06.227Z,26.00
2023-02-11T19:00:12.343Z,27.40
2023-02-11T19:03:16.288Z,27.40
2023-02-11T19:06:22.287Z,24.80
2023-02-11T19:09:25.692Z,26.00
2023-02-11T19:12:29.064Z,27.25
2023-02-11T19:15:33.798Z,26.00
2023-02-11T19:18:38.744Z,28.00
2023-02-11T19:21:44.272Z,26.20
2023-02-11T19:24:48.006Z,24.60
2023-02-11T19:27:51.277Z,26.25
2023-02-11T19:30:56.066Z,27.00
2023-02-11T19:33:59.545Z,26.00
2023-02-11T19:37:02.961Z,26.75
2023-02-11T19:40:08.971Z,26.00
2023-02-11T19:43:12.377Z,26.00
2023-02-11T19:46:17.078Z,27.00
2023-02-11T19:49:23.453Z,27.60
2023-02-11T19:52:27.188Z,28.00
2023-02-11T19:55:30.492Z,26.20
2023-02-11T19:58:34.120Z,27.00
2023-02-11T20:01:39.007Z,27.00
2023-02-11T20:04:42.308Z,26.25
2023-02-11T20:07:48.076Z,27.75
2023-02-11T20:10:51.399Z,29.00
2023-02-11T20:13:55.196Z,28.00
2023-02-11T20:16:59.952Z,27.67
2023-02-11T20:20:03.432Z,28.00
2023-02-11T20:23:07.035Z,25.40
2023-02-11T20:26:12.600Z,27.00
2023-02-11T20:29:16.521Z,28.00
2023-02-11T20:32:21.291Z,28.00
2023-02-11T20:35:24.637Z,27.00
2023-02-11T20:38:28.629Z,27.50
2023-02-11T20:41:34.405Z,28.60
2023-02-11T20:44:37.908Z,28.00
2023-02-11T20:47:42.590Z,27.50
2023-02-11T20:50:48.257Z,26.00
2023-02-11T20:53:52.708Z,27.00
2023-02-11T20:56:57.090Z,26.00
2023-02-11T21:00:00.357Z,27.00
2023-02-11T21:03:05.400Z,27.20
2023-02-11T21:06:09.053Z,28.00
2023-02-11T21:09:14.902Z,24.20
2023-02-11T21:12:18.146Z,25.00
2023-02-11T21:15:24.016Z,27.00
2023-02-11T21:18:28.665Z,27.00
2023-02-11T21:21:32.027Z,26.00
2023-02-11T21:24:35.480Z,28.00
2023-02-11T21:27:39.076Z,27.00
2023-02-11T21:30:42.906Z,23.00
2023-02-11T21:33:47.973Z,26.00
2023-02-11T21:36:52.323Z,27.00
2023-02-11T21:39:55.710Z,25.60
2023-02-11T21:42:59.895Z,27.40
2023-02-11T21:46:09.438Z,25.00
2023-02-11T21:49:14.241Z,27.40
2023-02-11T21:52:17.606Z,26.00
2023-02-11T21:55:21.003Z,25.00
2023-02-11T21:58:24.674Z,26.40
2023-02-11T22:01:30.561Z,27.00
2023-02-11T22:04:35.369Z,27.00
2023-02-11T22:07:38.844Z,26.00
2023-02-11T22:10:42.102Z,27.67
2023-02-11T22:13:45.577Z,27.00
2023-02-11T22:16:49.338Z,27.00
2023-02-11T22:19:53.945Z,26.00
2023-02-11T22:22:57.175Z,26.60
2023-02-11T22:26:05.332Z,28.00
2023-02-11T22:29:08.819Z,28.00
2023-02-11T22:32:12.323Z,28.00
2023-02-11T22:35:17.671Z,26.00
2023-02-11T22:38:21.045Z,26.00
2023-02-11T22:41:25.948Z,27.00
2023-02-11T22:44:29.260Z,26.00
2023-02-11T22:47:32.512Z,26.25
2023-02-11T22:50:37.415Z,26.00
2023-02-11T22:53:41.007Z,27.00
2023-02-11T22:56:45.137Z,25.75
2023-02-11T22:59:49.555Z,27.00
2023-02-11T23:02:52.943Z,26.00
2023-02-11T23:05:59.359Z,27.00
2023-02-11T23:09:04.341Z,26.00
2023-02-11T23:12:08.152Z,28.00
2023-02-11T23:15:11.584Z,26.40
2023-02-11T23:18:16.108Z,26.00
2023-02-11T23:21:23.223Z,27.75
2023-02-11T23:24:26.503Z,25.60
2023-02-11T23:27:29.992Z,26.60
2023-02-11T23:30:33.350Z,26.00
2023-02-11T23:33:36.665Z,26.25
2023-02-11T23:36:41.350Z,28.00
2023-02-11T23:39:45.034Z,25.00
2023-02-11T23:42:49.217Z,26.00
2023-02-11T23:45:53.302Z,26.00
2023-02-11T23:48:56.783Z,25.60
2023-02-11T23:52:01.401Z,27.00
2023-02-11T23:55:05.335Z,26.60
2023-02-11T23:58:09.091Z,27.00
